Time;durP1;ratioP1;P1;durP2;ratioP2;P2;SDS_P1;SDS_P2;PMS_P1;PMS_P2;Temp;Humidity;BMP_temperature;BMP_pressure;BME280_temperature;BME280_humidity;BME280_pressure;Samples;Min_cycle;Max_cycle;Signal;HPM_P1;HPM_P2
2021/09/29 00:00:21;;;;;;;7.18;4.13;;;;;;;10.49;100.00;101442.84;4990967;28;20038;-82
2021/09/29 00:02:48;;;;;;;7.20;4.65;;;;;;;10.55;100.00;101437.50;4974281;28;20042;-81
2021/09/29 00:05:15;;;;;;;7.30;4.28;;;;;;;10.52;100.00;101432.25;4987034;28;20137;-81
2021/09/29 00:07:42;;;;;;;8.75;4.57;;;;;;;10.53;100.00;101431.38;4973879;28;20535;-82
2021/09/29 00:10:10;;;;;;;6.53;3.88;;;;;;;10.50;100.00;101434.00;4975427;28;20057;-81
2021/09/29 00:12:36;;;;;;;6.80;4.57;;;;;;;10.48;100.00;101433.16;4962714;28;20133;-82
2021/09/29 00:15:10;;;;;;;8.40;4.15;;;;;;;10.38;100.00;101429.72;4975898;28;20042;-81
2021/09/29 00:17:38;;;;;;;5.43;3.90;;;;;;;10.33;100.00;101436.78;4959039;28;20038;-81
2021/09/29 00:20:05;;;;;;;6.80;4.05;;;;;;;10.32;100.00;101434.16;4944184;28;20053;-81
2021/09/29 00:22:32;;;;;;;5.90;4.00;;;;;;;10.26;100.00;101428.94;4953858;28;20504;-82
2021/09/29 00:24:59;;;;;;;9.30;4.25;;;;;;;10.26;100.00;101434.22;4959231;28;20050;-80
2021/09/29 00:27:26;;;;;;;6.10;3.75;;;;;;;10.29;100.00;101428.91;4957838;28;20045;-81
2021/09/29 00:29:54;;;;;;;5.82;3.97;;;;;;;10.41;100.00;101426.16;4973677;28;20555;-82
2021/09/29 00:32:21;;;;;;;6.88;4.00;;;;;;;10.33;100.00;101420.94;4977155;28;20100;-81
2021/09/29 00:34:47;;;;;;;7.72;4.40;;;;;;;10.37;100.00;101421.81;4959293;28;20518;-81
2021/09/29 00:37:14;;;;;;;9.25;4.20;;;;;;;10.48;100.00;101416.44;4975586;28;20052;-81
2021/09/29 00:39:41;;;;;;;7.88;4.45;;;;;;;10.34;100.00;101416.53;4957956;28;20108;-81
2021/09/29 00:42:07;;;;;;;6.72;4.35;;;;;;;10.40;100.00;101409.44;4943428;28;20093;-81
2021/09/29 00:44:34;;;;;;;5.35;3.83;;;;;;;10.47;100.00;101415.56;4973507;28;20043;-81
2021/09/29 00:47:01;;;;;;;6.90;4.63;;;;;;;10.50;100.00;101412.88;4989403;28;20070;-81
2021/09/29 00:49:27;;;;;;;9.00;4.25;;;;;;;10.54;100.00;101406.69;4991852;28;20070;-81
2021/09/29 00:51:55;;;;;;;7.22;4.35;;;;;;;10.54;100.00;101405.81;4991557;28;20100;-81
2021/09/29 00:54:29;;;;;;;7.57;4.07;;;;;;;10.58;100.00;101394.31;4944863;28;20145;-81
2021/09/29 00:56:56;;;;;;;6.65;4.00;;;;;;;10.60;100.00;101401.38;4981220;28;20047;-81
2021/09/29 00:59:23;;;;;;;5.45;3.70;;;;;;;10.58;100.00;101397.84;4990958;28;20039;-80
2021/09/29 01:01:51;;;;;;;8.55;4.50;;;;;;;10.66;100.00;101398.66;5043385;23;20073;-80
2021/09/29 01:04:20;;;;;;;7.60;4.65;;;;;;;10.68;100.00;101388.97;5017059;28;20067;-80
2021/09/29 01:06:57;;;;;;;9.45;4.43;;;;;;;10.74;100.00;101393.28;5024276;28;20048;-80
2021/09/29 01:09:30;;;;;;;7.50;4.30;;;;;;;10.75;100.00;101378.31;5045946;28;20088;-81
2021/09/29 01:12:01;;;;;;;5.77;4.53;;;;;;;10.76;100.00;101378.28;5015780;28;20547;-81
2021/09/29 01:14:34;;;;;;;6.55;3.70;;;;;;;10.88;100.00;101372.91;5006304;28;20296;-81
2021/09/29 01:17:01;;;;;;;7.63;4.55;;;;;;;10.81;100.00;101370.34;5014283;28;20060;-81
2021/09/29 01:19:54;;;;;;;5.70;3.95;;;;;;;10.84;100.00;101371.16;5023490;28;20409;-80
2021/09/29 01:22:42;;;;;;;8.27;3.65;;;;;;;10.90;100.00;101355.25;4988492;28;20053;-81
2021/09/29 01:25:19;;;;;;;6.35;3.78;;;;;;;10.87;100.00;101357.06;5013904;28;20040;-79
2021/09/29 01:27:46;;;;;;;9.07;4.20;;;;;;;11.02;100.00;101348.09;5019961;28;20037;-80
2021/09/29 01:30:13;;;;;;;5.72;3.65;;;;;;;10.91;100.00;101353.47;5021246;28;20050;-81
2021/09/29 01:32:40;;;;;;;9.52;4.57;;;;;;;10.93;100.00;101349.03;5013030;28;20052;-80
2021/09/29 01:35:07;;;;;;;6.15;4.22;;;;;;;10.97;100.00;101345.50;5015644;28;20045;-81
2021/09/29 01:37:34;;;;;;;5.90;3.90;;;;;;;10.97;100.00;101345.50;5017482;28;20048;-80
2021/09/29 01:40:01;;;;;;;5.00;3.35;;;;;;;10.99;100.00;101341.06;5003518;28;20037;-81
2021/09/29 01:42:28;;;;;;;11.23;4.15;;;;;;;11.12;100.00;101344.44;5039166;28;20057;-82
2021/09/29 01:44:55;;;;;;;7.32;4.05;;;;;;;11.12;100.00;101347.97;5017796;28;20069;-82
2021/09/29 01:47:21;;;;;;;6.32;3.47;;;;;;;11.05;100.00;101341.00;5015730;28;20045;-80
2021/09/29 01:49:50;;;;;;;5.32;3.47;;;;;;;11.00;100.00;101342.78;5034189;28;20037;-82
2021/09/29 01:52:20;;;;;;;6.28;4.05;;;;;;;11.03;100.00;101345.44;5018469;28;20072;-81
2021/09/29 01:54:48;;;;;;;6.35;4.10;;;;;;;11.10;100.00;101339.19;5017009;28;20045;-82
2021/09/29 01:57:15;;;;;;;5.72;4.00;;;;;;;11.11;100.00;101338.28;4995065;28;20056;-83
2021/09/29 01:59:43;;;;;;;7.68;4.07;;;;;;;11.08;100.00;101335.66;5027293;28;20041;-83
2021/09/29 02:02:12;;;;;;;5.13;3.35;;;;;;;11.04;100.00;101339.25;5011439;28;21046;-83
2021/09/29 02:04:44;;;;;;;6.55;3.60;;;;;;;11.09;100.00;101333.88;5038186;28;20091;-85
2021/09/29 02:07:11;;;;;;;6.85;3.42;;;;;;;11.13;100.00;101323.25;5013777;28;20056;-82
2021/09/29 02:09:37;;;;;;;5.13;3.45;;;;;;;11.09;100.00;101329.47;4998203;28;20041;-83
2021/09/29 02:12:04;;;;;;;8.32;3.90;;;;;;;11.08;100.00;101327.72;5013376;28;20045;-82
2021/09/29 02:14:31;;;;;;;4.18;3.40;;;;;;;11.11;100.00;101327.69;5016911;28;20041;-84
2021/09/29 02:16:58;;;;;;;7.13;3.97;;;;;;;11.12;100.00;101324.16;5020660;28;20053;-81
2021/09/29 02:19:26;;;;;;;5.72;3.47;;;;;;;11.16;100.00;101325.00;5040863;28;20040;-83
2021/09/29 02:21:54;;;;;;;5.20;3.58;;;;;;;11.17;100.00;101327.59;5038465;28;20083;-83
2021/09/29 02:24:21;;;;;;;6.15;3.50;;;;;;;11.19;100.00;101317.03;5007607;28;20033;-82
2021/09/29 02:26:47;;;;;;;6.00;3.60;;;;;;;11.20;100.00;101313.50;5030170;28;20041;-86
2021/09/29 02:29:16;;;;;;;6.20;4.18;;;;;;;11.23;100.00;101314.31;5006035;28;20090;-81
2021/09/29 02:31:43;;;;;;;5.38;3.28;;;;;;;11.29;100.00;101313.38;5019269;28;20049;-83
2021/09/29 02:34:10;;;;;;;5.63;3.60;;;;;;;11.30;100.00;101311.59;5022653;28;20118;-83
2021/09/29 02:36:37;;;;;;;5.47;3.60;;;;;;;11.28;100.00;101309.84;5040354;28;20053;-81
2021/09/29 02:39:04;;;;;;;5.30;3.28;;;;;;;11.31;100.00;101306.28;5004027;28;20087;-81
2021/09/29 02:41:31;;;;;;;8.68;3.88;;;;;;;11.36;100.00;101306.25;4996789;28;20041;-82
2021/09/29 02:43:58;;;;;;;7.72;3.55;;;;;;;11.38;100.00;101305.31;5027161;28;20494;-84
2021/09/29 02:46:26;;;;;;;9.48;4.35;;;;;;;11.32;100.00;101299.22;5043133;28;20080;-83
2021/09/29 02:48:56;;;;;;;5.68;3.78;;;;;;;11.30;100.00;101303.66;5008857;28;20046;-84
2021/09/29 02:51:23;;;;;;;5.70;3.45;;;;;;;11.24;100.00;101302.84;4992283;28;20111;-82
2021/09/29 02:53:50;;;;;;;6.20;4.13;;;;;;;11.28;100.00;101299.28;5009977;28;20049;-80
2021/09/29 02:56:16;;;;;;;6.10;3.97;;;;;;;11.35;100.00;101296.53;5023940;28;20045;-83
2021/09/29 02:58:43;;;;;;;4.70;3.40;;;;;;;11.37;100.00;101294.75;5015466;28;20049;-82
2021/09/29 03:01:10;;;;;;;5.35;3.70;;;;;;;11.35;100.00;101294.78;5008235;28;20049;-81
2021/09/29 03:03:37;;;;;;;6.95;3.33;;;;;;;11.41;100.00;101291.16;5011155;28;20095;-82
2021/09/29 03:06:03;;;;;;;6.55;3.53;;;;;;;11.44;100.00;101297.31;5045608;28;20482;-81
2021/09/29 03:08:30;;;;;;;8.15;3.83;;;;;;;11.48;100.00;101291.06;5000708;28;20056;-81
2021/09/29 03:10:57;;;;;;;7.22;4.05;;;;;;;11.47;100.00;101294.59;5012450;28;20037;-84
2021/09/29 03:13:24;;;;;;;4.25;3.47;;;;;;;11.50;100.00;101280.44;5030210;28;20041;-82
2021/09/29 03:15:50;;;;;;;5.45;3.63;;;;;;;11.48;100.00;101291.06;5032625;28;20049;-80
2021/09/29 03:18:17;;;;;;;5.20;3.53;;;;;;;11.48;100.00;101287.53;5005148;28;20041;-82
2021/09/29 03:20:44;;;;;;;5.72;3.72;;;;;;;11.52;100.00;101286.59;5020992;28;20084;-80
2021/09/29 03:23:12;;;;;;;5.32;4.22;;;;;;;11.45;100.00;101283.16;5031279;28;20041;-84
2021/09/29 03:25:39;;;;;;;4.60;3.35;;;;;;;11.49;100.00;101270.75;5015828;28;20064;-82
2021/09/29 03:28:05;;;;;;;4.78;3.70;;;;;;;11.60;100.00;101271.47;5017237;28;20041;-81
2021/09/29 03:30:32;;;;;;;5.72;3.83;;;;;;;11.53;100.00;101275.13;4999436;28;20038;-81
2021/09/29 03:32:59;;;;;;;6.90;3.88;;;;;;;11.60;100.00;101275.88;5029605;28;20614;-82
2021/09/29 03:35:26;;;;;;;7.10;3.83;;;;;;;11.63;100.00;101278.50;4999497;28;20045;-80
2021/09/29 03:37:53;;;;;;;6.32;3.58;;;;;;;11.57;100.00;101274.16;5013492;28;20065;-79
2021/09/29 03:40:19;;;;;;;6.00;4.15;;;;;;;11.61;100.00;101270.59;5014424;28;20042;-80
2021/09/29 03:42:46;;;;;;;6.18;3.83;;;;;;;11.64;100.00;101262.59;5012831;28;20038;-82
2021/09/29 03:45:13;;;;;;;5.30;3.75;;;;;;;11.68;100.00;101260.75;5015883;28;20049;-82
2021/09/29 03:47:42;;;;;;;5.20;3.58;;;;;;;11.66;100.00;101266.09;5000683;28;20052;-79
2021/09/29 03:50:10;;;;;;;5.88;3.75;;;;;;;11.66;100.00;101263.44;5045649;28;20040;-82
2021/09/29 03:52:37;;;;;;;5.13;3.75;;;;;;;11.69;100.00;101252.81;5019999;28;20587;-80
2021/09/29 03:55:04;;;;;;;6.35;3.78;;;;;;;11.68;100.00;101252.81;5013734;28;20138;-80
2021/09/29 03:57:31;;;;;;;5.68;4.28;;;;;;;11.68;100.00;101253.69;5013999;28;20071;-79
2021/09/29 03:59:58;;;;;;;8.63;5.43;;;;;;;11.73;100.00;101243.91;5011987;28;20041;-79
2021/09/29 04:02:24;;;;;;;7.55;4.22;;;;;;;11.75;100.00;101246.53;5014480;28;20052;-80
2021/09/29 04:04:52;;;;;;;5.60;3.97;;;;;;;11.77;100.00;101236.78;5014315;28;20136;-81
2021/09/29 04:07:18;;;;;;;6.45;3.80;;;;;;;11.80;100.00;101237.66;5025901;28;20052;-79
2021/09/29 04:09:46;;;;;;;5.53;3.65;;;;;;;11.77;100.00;101229.75;5008448;28;20434;-81
2021/09/29 04:12:13;;;;;;;6.03;4.07;;;;;;;11.84;100.00;101228.75;5013498;28;20045;-80
2021/09/29 04:14:40;;;;;;;5.07;3.50;;;;;;;11.80;100.00;101229.72;5030565;28;20041;-81
2021/09/29 04:17:07;;;;;;;7.47;4.18;;;;;;;11.83;100.00;101227.00;5009661;28;21053;-80
2021/09/29 04:19:34;;;;;;;8.82;4.50;;;;;;;11.91;100.00;101231.31;5015939;28;20041;-81
2021/09/29 04:22:01;;;;;;;6.25;4.22;;;;;;;11.92;100.00;101226.00;5032559;28;20132;-79
2021/09/29 04:24:29;;;;;;;6.40;4.15;;;;;;;11.88;100.00;101231.38;4998035;28;20045;-81
2021/09/29 04:26:55;;;;;;;9.45;4.28;;;;;;;11.92;100.00;101230.41;5042930;28;20058;-79
2021/09/29 04:29:22;;;;;;;7.18;3.70;;;;;;;11.89;100.00;101228.69;5020564;28;20045;-80
2021/09/29 04:31:49;;;;;;;7.53;4.85;;;;;;;11.96;100.00;101218.88;5026228;28;20041;-79
2021/09/29 04:34:17;;;;;;;7.68;4.43;;;;;;;11.94;100.00;101224.22;4996608;28;20049;-80
2021/09/29 04:36:46;;;;;;;8.98;4.57;;;;;;;12.03;100.00;101221.41;5013961;28;20041;-80
2021/09/29 04:39:13;;;;;;;11.88;6.97;;;;;;;12.08;100.00;101216.00;5011061;28;20050;-80
2021/09/29 04:41:40;;;;;;;7.95;4.43;;;;;;;12.01;100.00;101222.31;4998935;28;20033;-80
2021/09/29 04:44:07;;;;;;;8.32;4.35;;;;;;;12.03;100.00;101210.81;5047371;28;20056;-81
2021/09/29 04:46:36;;;;;;;9.38;4.82;;;;;;;12.03;100.00;101216.09;5014869;28;20048;-82
2021/09/29 04:49:04;;;;;;;6.75;4.10;;;;;;;12.04;100.00;101217.84;4996327;28;20821;-81
2021/09/29 04:51:34;;;;;;;9.13;4.85;;;;;;;12.01;100.00;101217.88;4995681;28;20034;-81
2021/09/29 04:54:01;;;;;;;9.23;5.10;;;;;;;12.10;100.00;101207.13;5013548;28;20045;-80
2021/09/29 04:56:28;;;;;;;10.73;5.03;;;;;;;12.10;100.00;101200.94;5015300;28;20077;-78
2021/09/29 04:58:57;;;;;;;8.13;4.20;;;;;;;12.09;100.00;101207.16;5014561;28;20135;-81
2021/09/29 05:01:27;;;;;;;10.45;5.15;;;;;;;12.09;100.00;101201.84;5017320;28;20137;-79
2021/09/29 05:03:54;;;;;;;11.23;6.53;;;;;;;12.15;100.00;101207.06;5029109;28;20041;-79
2021/09/29 05:06:22;;;;;;;9.70;6.25;;;;;;;12.15;100.00;101204.41;5001434;28;20049;-82
2021/09/29 05:08:50;;;;;;;12.30;5.47;;;;;;;12.13;100.00;101200.91;5010999;28;20038;-81
2021/09/29 05:11:20;;;;;;;10.35;5.43;;;;;;;12.15;100.00;101206.19;5013956;28;20091;-82
2021/09/29 05:13:47;;;;;;;17.42;8.18;;;;;;;12.26;100.00;101201.56;5004168;28;20037;-82
2021/09/29 05:16:13;;;;;;;14.02;7.68;;;;;;;12.23;100.00;101201.63;5008018;28;20049;-82
2021/09/29 05:18:40;;;;;;;16.55;7.75;;;;;;;12.30;100.00;101200.59;5000346;28;20076;-80
2021/09/29 05:21:07;;;;;;;20.95;8.35;;;;;;;12.32;100.00;101197.00;5019337;28;20037;-83
2021/09/29 05:23:34;;;;;;;21.95;10.30;;;;;;;12.36;100.00;101201.38;5000052;28;20465;-81
2021/09/29 05:26:01;;;;;;;21.77;9.10;;;;;;;12.33;100.00;101188.16;5016167;28;20045;-82
2021/09/29 05:28:31;;;;;;;18.85;8.40;;;;;;;12.35;100.00;101191.66;5013130;28;20048;-81
2021/09/29 05:30:58;;;;;;;15.07;7.43;;;;;;;12.32;100.00;101186.41;5028815;28;20037;-82
2021/09/29 05:33:25;;;;;;;22.25;9.07;;;;;;;12.32;100.00;101185.53;5015297;28;20037;-81
2021/09/29 05:35:51;;;;;;;25.20;11.93;;;;;;;12.25;100.00;101182.13;5032195;28;20045;-84
2021/09/29 05:38:18;;;;;;;20.48;10.35;;;;;;;12.55;100.00;101185.09;5014130;28;20045;-83
2021/09/29 05:40:45;;;;;;;20.05;9.38;;;;;;;12.48;100.00;101178.19;5013549;28;20391;-80
2021/09/29 05:43:12;;;;;;;24.60;9.55;;;;;;;12.43;100.00;101177.38;5012673;28;20107;-83
2021/09/29 05:45:39;;;;;;;29.45;11.65;;;;;;;12.45;100.00;101180.91;5018177;28;20045;-80
2021/09/29 05:48:05;;;;;;;20.85;10.10;;;;;;;12.57;100.00;101175.34;5003037;28;20046;-79
2021/09/29 05:50:35;;;;;;;22.08;9.57;;;;;;;12.49;100.00;101170.19;5026576;28;20633;-80
2021/09/29 05:53:02;;;;;;;23.38;11.15;;;;;;;12.54;100.00;101175.41;4996765;28;20495;-80
2021/09/29 05:55:29;;;;;;;23.75;9.75;;;;;;;12.55;100.00;101177.16;5047162;28;20518;-79
2021/09/29 05:57:56;;;;;;;20.60;10.20;;;;;;;12.62;100.00;101170.81;5014139;28;20503;-81
2021/09/29 06:00:23;;;;;;;18.67;8.88;;;;;;;12.58;100.00;101166.47;5027845;28;20041;-81
2021/09/29 06:02:49;;;;;;;17.42;8.15;;;;;;;12.57;100.00;101168.25;5011116;28;20037;-80
2021/09/29 06:05:21;;;;;;;17.55;8.50;;;;;;;12.58;100.00;101164.69;5029748;28;20077;-82
2021/09/29 06:07:49;;;;;;;17.67;9.80;;;;;;;12.64;100.00;101159.28;5013003;28;20041;-81
2021/09/29 06:10:16;;;;;;;23.35;11.30;;;;;;;12.72;100.00;101151.16;5009629;28;20038;-82
2021/09/29 06:12:42;;;;;;;19.90;9.98;;;;;;;12.71;100.00;101144.13;4994430;28;20045;-82
2021/09/29 06:15:17;;;;;;;24.58;10.68;;;;;;;12.72;100.00;101143.22;4988657;28;20042;-83
2021/09/29 06:17:53;;;;;;;25.40;11.10;;;;;;;12.86;100.00;101134.94;5007658;28;20111;-80
2021/09/29 06:20:20;;;;;;;21.90;11.73;;;;;;;12.81;100.00;101142.13;4996988;28;20518;-81
2021/09/29 06:22:47;;;;;;;24.88;12.52;;;;;;;12.85;100.00;101134.06;4996192;28;20441;-81
2021/09/29 06:25:14;;;;;;;24.05;12.07;;;;;;;12.91;100.00;101141.88;5028663;28;20087;-82
2021/09/29 06:27:40;;;;;;;23.38;11.02;;;;;;;12.87;100.00;101148.19;5002211;28;20099;-80
2021/09/29 06:30:07;;;;;;;23.35;11.05;;;;;;;12.87;100.00;101152.63;5014948;28;20046;-81
2021/09/29 06:32:34;;;;;;;25.77;12.05;;;;;;;12.91;100.00;101151.63;5043171;28;20079;-82
2021/09/29 06:35:01;;;;;;;25.30;12.23;;;;;;;13.00;100.00;101150.53;5015346;28;21819;-81
2021/09/29 06:37:28;;;;;;;22.55;11.52;;;;;;;12.97;100.00;101154.16;5005315;28;20042;-81
2021/09/29 06:39:54;;;;;;;26.23;12.07;;;;;;;13.07;100.00;101150.38;5025624;28;20097;-81
2021/09/29 06:42:21;;;;;;;27.05;12.45;;;;;;;13.00;100.00;101155.84;5005220;28;20048;-81
2021/09/29 06:44:48;;;;;;;26.00;12.85;;;;;;;13.17;100.00;101151.91;5012604;28;20042;-81
2021/09/29 06:47:15;;;;;;;23.83;12.18;;;;;;;13.09;100.00;101147.69;5005785;28;20501;-79
2021/09/29 06:49:42;;;;;;;20.58;11.77;;;;;;;13.06;100.00;101148.63;5010975;28;20046;-80
2021/09/29 06:52:08;;;;;;;20.92;11.15;;;;;;;13.01;100.00;101150.50;5013827;28;20045;-81
2021/09/29 06:54:35;;;;;;;24.60;11.82;;;;;;;13.10;100.00;101144.13;4992454;28;20042;-80
2021/09/29 06:57:02;;;;;;;22.20;10.90;;;;;;;13.11;100.00;101148.50;5013286;28;20411;-81
2021/09/29 06:59:29;;;;;;;18.42;9.23;;;;;;;13.09;100.00;101143.25;5015953;28;20050;-81
2021/09/29 07:01:55;;;;;;;24.05;12.10;;;;;;;13.30;100.00;101136.63;5085504;22;20071;-79
2021/09/29 07:04:22;;;;;;;18.65;10.32;;;;;;;13.40;100.00;101135.47;5011461;28;20045;-80
2021/09/29 07:06:49;;;;;;;26.27;12.50;;;;;;;13.24;100.00;101124.34;4966140;28;20050;-82
2021/09/29 07:09:37;;;;;;;22.42;11.55;;;;;;;13.27;100.00;101128.69;5013932;28;20135;-82
2021/09/29 07:12:08;;;;;;;18.55;10.07;;;;;;;13.26;100.00;101129.63;5011640;28;20041;-82
2021/09/29 07:14:35;;;;;;;21.77;11.40;;;;;;;13.31;100.00;101121.56;4997547;28;20056;-80
2021/09/29 07:17:02;;;;;;;22.38;11.07;;;;;;;13.27;100.00;101110.13;5011458;28;20042;-81
2021/09/29 07:19:29;;;;;;;19.48;9.98;;;;;;;13.34;100.00;101110.84;5012849;28;20038;-80
2021/09/29 07:21:56;;;;;;;19.50;10.02;;;;;;;13.46;100.00;101106.13;5025273;28;20045;-81
2021/09/29 07:24:22;;;;;;;20.23;10.40;;;;;;;13.58;100.00;101110.25;5013000;28;20042;-80
2021/09/29 07:26:49;;;;;;;21.50;11.27;;;;;;;13.64;100.00;101094.16;5012151;28;20042;-80
2021/09/29 07:29:16;;;;;;;18.58;10.27;;;;;;;13.59;100.00;101090.75;5012563;28;20056;-81
2021/09/29 07:31:43;;;;;;;19.73;10.48;;;;;;;13.83;100.00;101086.56;5007492;28;20038;-81
2021/09/29 07:34:11;;;;;;;14.43;9.15;;;;;;;13.71;100.00;101089.56;5011158;28;20076;-81
2021/09/29 07:36:38;;;;;;;17.80;9.98;;;;;;;13.68;100.00;101090.50;5029064;28;20050;-81
2021/09/29 07:39:06;;;;;;;23.00;11.23;;;;;;;13.69;100.00;101092.25;5026157;28;20034;-81
2021/09/29 07:41:34;;;;;;;16.90;9.20;;;;;;;13.71;100.00;101081.59;4994387;28;20101;-81
2021/09/29 07:44:01;;;;;;;17.23;8.60;;;;;;;13.67;100.00;101082.59;5012088;28;20391;-81
2021/09/29 07:46:32;;;;;;;23.88;11.88;;;;;;;13.77;100.00;101068.16;5033411;28;20574;-81
2021/09/29 07:49:01;;;;;;;18.93;9.23;;;;;;;13.82;100.00;101066.25;5027635;28;20069;-80
2021/09/29 07:51:28;;;;;;;16.35;9.32;;;;;;;13.75;100.00;101069.97;4980815;28;20041;-80
2021/09/29 07:53:55;;;;;;;16.25;8.98;;;;;;;13.77;100.00;101062.81;5020517;28;20046;-81
2021/09/29 07:56:22;;;;;;;16.63;9.35;;;;;;;13.92;100.00;101057.09;5010102;28;20037;-80
2021/09/29 07:58:49;;;;;;;21.80;10.35;;;;;;;13.79;100.00;101059.25;5007023;28;20503;-80
2021/09/29 08:01:16;;;;;;;18.42;9.00;;;;;;;13.94;100.00;101049.09;5014493;28;20066;-81
2021/09/29 08:03:44;;;;;;;21.30;10.07;;;;;;;13.85;100.00;101049.34;5015573;28;20137;-81
2021/09/29 08:06:12;;;;;;;25.95;11.85;;;;;;;13.98;100.00;101045.44;5013341;28;20050;-80
2021/09/29 08:08:39;;;;;;;22.55;10.77;;;;;;;13.91;100.00;101054.50;4994950;28;20519;-81
2021/09/29 08:11:06;;;;;;;25.55;11.93;;;;;;;14.04;100.00;101046.16;4996273;28;20046;-81
2021/09/29 08:13:33;;;;;;;25.00;11.40;;;;;;;14.00;100.00;101047.13;5011112;28;20030;-81
2021/09/29 08:16:02;;;;;;;25.38;12.05;;;;;;;13.99;100.00;101042.75;4996917;28;20474;-81
2021/09/29 08:18:29;;;;;;;27.92;13.60;;;;;;;13.94;100.00;101038.47;5023949;28;20053;-79
2021/09/29 08:20:58;;;;;;;28.05;12.30;;;;;;;13.91;100.00;101030.59;4977315;28;20050;-81
2021/09/29 08:23:32;;;;;;;24.17;12.38;;;;;;;13.96;100.00;101015.41;5007862;28;20042;-79
2021/09/29 08:31:01;;;;;;;27.73;14.30;;;;;;;14.11;100.00;101006.97;5008816;28;20085;-80
2021/09/29 08:36:09;;;;;;;36.28;15.75;;;;;;;14.28;100.00;101011.78;5013835;28;20049;-81
2021/09/29 08:38:41;;;;;;;30.42;14.73;;;;;;;14.24;100.00;101016.31;5011882;28;20264;-80
2021/09/29 08:43:48;;;;;;;42.13;19.45;;;;;;;14.34;100.00;100998.31;4993620;28;20042;-81
2021/09/29 08:47:06;;;;;;;39.35;17.23;;;;;;;14.57;100.00;101000.28;5011693;28;20077;-81
2021/09/29 08:49:16;;;;;;;41.30;18.95;;;;;;;14.65;100.00;101003.59;4998009;28;20051;-80
2021/09/29 09:16:41;;;;;;;39.83;20.83;;;;;;;15.21;100.00;100984.84;4996180;28;20037;-81
2021/09/29 09:19:10;;;;;;;40.28;23.35;;;;;;;15.34;100.00;100980.84;4991365;28;20532;-81
2021/09/29 09:22:01;;;;;;;40.63;22.80;;;;;;;15.30;100.00;100991.66;4994559;28;20053;-80
2021/09/29 09:24:31;;;;;;;38.40;21.35;;;;;;;15.31;100.00;100990.75;5022826;28;20042;-81
2021/09/29 09:27:00;;;;;;;43.03;24.35;;;;;;;15.20;100.00;100989.31;5023881;28;20541;-81
2021/09/29 09:29:28;;;;;;;34.33;19.90;;;;;;;15.16;100.00;100997.47;5009648;28;20041;-80
2021/09/29 09:32:06;;;;;;;41.47;24.33;;;;;;;15.27;100.00;100991.78;4975956;28;20502;-80
2021/09/29 09:34:33;;;;;;;40.75;22.92;;;;;;;15.24;100.00;100984.78;4994066;28;20050;-80
2021/09/29 09:37:00;;;;;;;37.90;22.60;;;;;;;15.14;100.00;100980.69;5008523;28;20053;-80
2021/09/29 09:39:28;;;;;;;39.92;23.75;;;;;;;15.25;100.00;100969.66;5024953;28;20042;-80
2021/09/29 09:42:01;;;;;;;32.25;20.85;;;;;;;15.30;100.00;100983.66;5006618;28;20041;-81
2021/09/29 09:44:34;;;;;;;37.22;20.42;;;;;;;15.19;100.00;100976.06;5009142;28;20045;-80
2021/09/29 09:47:14;;;;;;;34.92;20.35;;;;;;;15.21;100.00;100976.88;4988327;28;20046;-81
2021/09/29 09:49:44;;;;;;;36.88;21.20;;;;;;;15.19;100.00;100978.72;5008229;28;20049;-79
2021/09/29 09:52:11;;;;;;;36.03;21.10;;;;;;;15.10;100.00;100984.38;5006775;28;20038;-82
2021/09/29 09:54:40;;;;;;;34.33;21.85;;;;;;;15.11;100.00;100991.41;5020356;28;20038;-81
2021/09/29 09:57:20;;;;;;;30.83;20.60;;;;;;;15.07;100.00;100997.78;5009475;28;20103;-80
2021/09/29 09:59:53;;;;;;;36.08;20.75;;;;;;;15.03;100.00;100994.34;5006054;28;20042;-81
2021/09/29 10:02:20;;;;;;;33.92;21.85;;;;;;;15.01;100.00;100987.34;4983955;28;20038;-81
2021/09/29 10:04:48;;;;;;;34.08;21.15;;;;;;;14.92;100.00;100989.38;5021576;28;20042;-81
2021/09/29 10:07:15;;;;;;;32.40;19.95;;;;;;;14.93;100.00;100995.56;4984843;28;20474;-81
2021/09/29 10:09:48;;;;;;;31.98;19.73;;;;;;;14.84;100.00;100994.09;5004206;28;20292;-81
2021/09/29 10:12:27;;;;;;;34.50;20.25;;;;;;;14.87;100.00;100998.41;4989246;28;20046;-81
2021/09/29 10:15:21;;;;;;;36.78;22.80;;;;;;;14.87;100.00;101006.41;5025486;28;20129;-83
2021/09/29 10:26:08;;;;;;;38.78;21.27;;;;;;;14.68;100.00;100962.72;5009264;28;20103;-81
2021/09/29 10:28:39;;;;;;;33.03;19.98;;;;;;;14.56;100.00;100974.63;5007417;28;20046;-80
2021/09/29 10:34:02;;;;;;;37.88;22.00;;;;;;;14.61;100.00;100962.03;5009278;28;20711;-80
2021/09/29 10:44:31;;;;;;;39.50;21.65;;;;;;;14.35;100.00;100954.84;5009348;28;20046;-82
2021/09/29 10:47:27;;;;;;;38.42;23.10;;;;;;;14.40;100.00;100954.72;5020052;28;20046;-82
2021/09/29 10:50:13;;;;;;;31.00;20.10;;;;;;;14.37;100.00;100963.66;5009339;28;20045;-82
2021/09/29 10:52:58;;;;;;;30.90;21.02;;;;;;;14.28;100.00;100959.50;4991873;28;20042;-82
2021/09/29 11:11:54;;;;;;;23.08;17.05;;;;;;;14.02;100.00;100954.97;5009102;28;20054;-81
2021/09/29 11:36:23;;;;;;;19.50;13.93;;;;;;;13.80;100.00;100948.56;5012700;28;20044;-81
2021/09/29 11:39:40;;;;;;;18.73;14.55;;;;;;;13.74;100.00;100951.41;5010632;28;20435;-80
2021/09/29 12:14:34;;;;;;;20.83;13.98;;;;;;;13.31;100.00;100930.50;4998941;28;20054;-81
2021/09/29 12:17:03;;;;;;;21.55;16.05;;;;;;;13.30;100.00;100912.84;4978966;28;20046;-84
2021/09/29 12:19:36;;;;;;;21.55;15.15;;;;;;;13.31;100.00;100910.16;5000466;28;20038;-84
2021/09/29 12:22:07;;;;;;;21.92;15.60;;;;;;;13.29;100.00;100906.66;4975160;28;20593;-83
2021/09/29 12:24:45;;;;;;;21.40;15.68;;;;;;;13.29;100.00;100901.38;5010673;28;20068;-83
2021/09/29 12:30:32;;;;;;;20.35;14.93;;;;;;;13.26;100.00;100916.47;5007114;28;20375;-82
2021/09/29 12:33:11;;;;;;;22.27;16.07;;;;;;;13.18;100.00;100909.56;5008150;28;20056;-84
2021/09/29 12:35:50;;;;;;;21.45;15.30;;;;;;;13.23;100.00;100904.19;4985406;28;20801;-83
2021/09/29 12:38:17;;;;;;;21.83;16.55;;;;;;;13.24;100.00;100901.47;5022396;28;20253;-83
2021/09/29 12:40:45;;;;;;;19.95;16.15;;;;;;;13.23;100.00;100897.09;4973106;28;20104;-82
2021/09/29 12:43:14;;;;;;;23.10;16.65;;;;;;;13.08;100.00;100891.28;5008317;28;20450;-81
2021/09/29 12:45:46;;;;;;;20.98;16.33;;;;;;;13.13;100.00;100898.22;5007398;28;20064;-84
2021/09/29 12:48:13;;;;;;;23.27;16.23;;;;;;;13.21;100.00;100892.75;4992017;28;20074;-82
2021/09/29 12:53:24;;;;;;;21.23;15.30;;;;;;;13.11;100.00;100893.84;5006935;28;20045;-83
2021/09/29 12:58:22;;;;;;;22.80;15.27;;;;;;;13.08;100.00;100908.06;5007542;28;20052;-83
2021/09/29 13:00:49;;;;;;;23.95;16.33;;;;;;;13.10;100.00;100905.38;4991101;28;20642;-83
2021/09/29 13:03:16;;;;;;;23.63;16.73;;;;;;;13.11;100.00;100907.97;4991892;28;20132;-82
2021/09/29 13:05:43;;;;;;;22.85;16.15;;;;;;;13.10;100.00;100900.06;4996520;28;20046;-81
2021/09/29 13:08:11;;;;;;;20.08;15.10;;;;;;;13.05;100.00;100908.16;4981613;28;20491;-81
2021/09/29 13:10:37;;;;;;;23.38;16.98;;;;;;;13.08;100.00;100897.47;4988456;28;20046;-82
2021/09/29 13:13:05;;;;;;;21.67;17.38;;;;;;;13.13;100.00;100887.63;4983098;28;20041;-81
2021/09/29 13:15:32;;;;;;;21.83;16.60;;;;;;;13.09;100.00;100887.72;4995736;28;20072;-82
2021/09/29 13:17:59;;;;;;;21.67;15.75;;;;;;;13.16;100.00;100900.78;4990997;28;20421;-83
2021/09/29 13:20:29;;;;;;;23.13;15.95;;;;;;;13.18;100.00;100903.38;4968819;28;20054;-83
2021/09/29 13:23:15;;;;;;;22.58;15.38;;;;;;;13.23;100.00;100899.75;4999386;28;20046;-83
2021/09/29 13:36:39;;;;;;;25.80;16.85;;;;;;;13.18;100.00;100911.34;5021515;28;20622;-82
2021/09/29 13:39:14;;;;;;;20.98;15.50;;;;;;;13.15;100.00;100917.63;5022787;28;20844;-82
2021/09/29 13:41:42;;;;;;;22.88;17.35;;;;;;;13.27;100.00;100908.47;4957533;28;20053;-84